sensor_id;sensor_type;location;lat;lon;timestamp;pressure;altitude;pressure_sealevel;temperature;humidity
75656;BME280;64252;51.094;13.714;2022-12-11T00:00:10;99836.47;;;-1.53;91.55
75656;BME280;64252;51.094;13.714;2022-12-11T00:02:36;99843.63;;;-1.52;92.09
75656;BME280;64252;51.094;13.714;2022-12-11T00:05:02;99833.19;;;-1.55;92.85
75656;BME280;64252;51.094;13.714;2022-12-11T00:07:27;99832.53;;;-1.61;92.71
75656;BME280;64252;51.094;13.714;2022-12-11T00:09:53;99832.84;;;-1.62;92.81
75656;BME280;64252;51.094;13.714;2022-12-11T00:12:18;99835.13;;;-1.64;91.94
75656;BME280;64252;51.094;13.714;2022-12-11T00:14:44;99834.97;;;-1.59;91.71
75656;BME280;64252;51.094;13.714;2022-12-11T00:17:10;99834.50;;;-1.61;91.20
75656;BME280;64252;51.094;13.714;2022-12-11T00:19:35;99828.13;;;-1.62;91.30
75656;BME280;64252;51.094;13.714;2022-12-11T00:22:01;99841.31;;;-1.67;90.45
75656;BME280;64252;51.094;13.714;2022-12-11T00:24:26;99842.94;;;-1.66;91.49
75656;BME280;64252;51.094;13.714;2022-12-11T00:26:52;99848.66;;;-1.63;91.13
75656;BME280;64252;51.094;13.714;2022-12-11T00:29:17;99850.13;;;-1.65;91.72
75656;BME280;64252;51.094;13.714;2022-12-11T00:31:43;99852.38;;;-1.67;92.31
75656;BME280;64252;51.094;13.714;2022-12-11T00:34:09;99848.78;;;-1.68;92.15
75656;BME280;64252;51.094;13.714;2022-12-11T00:36:36;99848.47;;;-1.66;92.46
75656;BME280;64252;51.094;13.714;2022-12-11T00:39:03;99849.28;;;-1.66;92.40
75656;BME280;64252;51.094;13.714;2022-12-11T00:41:29;99841.00;;;-1.66;92.01
75656;BME280;64252;51.094;13.714;2022-12-11T00:43:55;99847.97;;;-1.68;91.41
75656;BME280;64252;51.094;13.714;2022-12-11T00:46:21;99841.16;;;-1.62;92.18
75656;BME280;64252;51.094;13.714;2022-12-11T00:48:46;99848.47;;;-1.66;91.82
75656;BME280;64252;51.094;13.714;2022-12-11T00:51:15;99850.75;;;-1.68;91.45
75656;BME280;64252;51.094;13.714;2022-12-11T00:53:40;99848.63;;;-1.71;91.25
75656;BME280;64252;51.094;13.714;2022-12-11T00:56:14;99843.25;;;-1.68;91.11
75656;BME280;64252;51.094;13.714;2022-12-11T00:58:40;99841.13;;;-1.71;90.76
75656;BME280;64252;51.094;13.714;2022-12-11T01:01:10;99840.97;;;-1.74;90.60
75656;BME280;64252;51.094;13.714;2022-12-11T01:03:36;99837.03;;;-1.73;90.36
75656;BME280;64252;51.094;13.714;2022-12-11T01:06:03;99844.69;;;-1.79;90.00
75656;BME280;64252;51.094;13.714;2022-12-11T01:08:28;99846.16;;;-1.82;90.43
75656;BME280;64252;51.094;13.714;2022-12-11T01:11:05;99846.13;;;-1.90;90.37
75656;BME280;64252;51.094;13.714;2022-12-11T01:13:30;99842.53;;;-1.91;90.82
75656;BME280;64252;51.094;13.714;2022-12-11T01:15:56;99853.25;;;-1.98;90.45
75656;BME280;64252;51.094;13.714;2022-12-11T01:18:22;99846.72;;;-2.02;90.82
75656;BME280;64252;51.094;13.714;2022-12-11T01:20:48;99853.25;;;-1.98;91.00
75656;BME280;64252;51.094;13.714;2022-12-11T01:23:13;99852.59;;;-1.95;90.86
75656;BME280;64252;51.094;13.714;2022-12-11T01:25:39;99854.53;;;-2.04;90.14
75656;BME280;64252;51.094;13.714;2022-12-11T01:28:06;99859.28;;;-1.96;90.81
75656;BME280;64252;51.094;13.714;2022-12-11T01:30:32;99855.34;;;-2.03;89.95
75656;BME280;64252;51.094;13.714;2022-12-11T01:32:58;99859.72;;;-2.02;90.64
75656;BME280;64252;51.094;13.714;2022-12-11T01:35:24;99852.88;;;-2.05;89.80
75656;BME280;64252;51.094;13.714;2022-12-11T01:37:50;99861.88;;;-1.99;90.98
75656;BME280;64252;51.094;13.714;2022-12-11T01:40:17;99855.16;;;-2.07;90.79
75656;BME280;64252;51.094;13.714;2022-12-11T01:42:43;99856.78;;;-2.06;90.94
75656;BME280;64252;51.094;13.714;2022-12-11T01:45:39;99863.59;;;-2.12;90.49
75656;BME280;64252;51.094;13.714;2022-12-11T01:48:13;99861.63;;;-2.11;90.39
75656;BME280;64252;51.094;13.714;2022-12-11T01:50:43;99861.47;;;-2.15;90.59
75656;BME280;64252;51.094;13.714;2022-12-11T01:53:12;99855.44;;;-2.17;91.35
75656;BME280;64252;51.094;13.714;2022-12-11T01:55:40;99857.06;;;-2.16;90.81
75656;BME280;64252;51.094;13.714;2022-12-11T01:58:07;99855.44;;;-2.17;91.77
75656;BME280;64252;51.094;13.714;2022-12-11T02:00:33;99851.72;;;-2.12;92.88
75656;BME280;64252;51.094;13.714;2022-12-11T02:02:59;99856.44;;;-2.13;92.29
75656;BME280;64252;51.094;13.714;2022-12-11T02:05:24;99860.34;;;-2.14;90.63
75656;BME280;64252;51.094;13.714;2022-12-11T02:07:54;99843.75;;;-2.14;91.27
75656;BME280;64252;51.094;13.714;2022-12-11T02:10:23;99852.03;;;-2.14;90.60
75656;BME280;64252;51.094;13.714;2022-12-11T02:12:57;99849.28;;;-2.14;90.88
75656;BME280;64252;51.094;13.714;2022-12-11T02:15:30;99852.53;;;-2.12;91.04
75656;BME280;64252;51.094;13.714;2022-12-11T02:20:54;99853.69;;;-2.13;90.20
75656;BME280;64252;51.094;13.714;2022-12-11T02:23:42;99852.34;;;-2.15;90.02
75656;BME280;64252;51.094;13.714;2022-12-11T02:26:29;99851.91;;;-2.09;89.40
75656;BME280;64252;51.094;13.714;2022-12-11T02:29:02;99848.97;;;-2.12;89.87
75656;BME280;64252;51.094;13.714;2022-12-11T02:31:40;99835.13;;;-2.12;90.54
75656;BME280;64252;51.094;13.714;2022-12-11T02:34:26;99839.50;;;-2.11;90.67
75656;BME280;64252;51.094;13.714;2022-12-11T02:37:00;99840.84;;;-2.09;89.99
75656;BME280;64252;51.094;13.714;2022-12-11T02:39:28;99833.00;;;-2.07;90.71
75656;BME280;64252;51.094;13.714;2022-12-11T02:41:55;99833.00;;;-2.07;90.46
75656;BME280;64252;51.094;13.714;2022-12-11T02:44:27;99835.31;;;-2.09;90.16
75656;BME280;64252;51.094;13.714;2022-12-11T02:46:55;99838.72;;;-2.12;90.24
75656;BME280;64252;51.094;13.714;2022-12-11T02:49:22;99843.59;;;-2.09;90.55
75656;BME280;64252;51.094;13.714;2022-12-11T02:51:49;99843.09;;;-2.11;89.81
75656;BME280;64252;51.094;13.714;2022-12-11T02:54:27;99845.72;;;-2.06;89.19
75656;BME280;64252;51.094;13.714;2022-12-11T02:57:16;99851.41;;;-2.02;89.14
75656;BME280;64252;51.094;13.714;2022-12-11T02:59:44;99841.38;;;-1.98;89.72
75656;BME280;64252;51.094;13.714;2022-12-11T03:02:12;99845.09;;;-2.03;89.54
75656;BME280;64252;51.094;13.714;2022-12-11T03:04:38;99849.81;;;-2.03;89.68
75656;BME280;64252;51.094;13.714;2022-12-11T03:07:15;99850.63;;;-2.03;89.82
75656;BME280;64252;51.094;13.714;2022-12-11T03:09:43;99849.94;;;-2.08;88.60
75656;BME280;64252;51.094;13.714;2022-12-11T03:12:12;99841.16;;;-2.10;89.74
75656;BME280;64252;51.094;13.714;2022-12-11T03:14:40;99838.53;;;-2.07;90.28
75656;BME280;64252;51.094;13.714;2022-12-11T03:17:16;99846.84;;;-2.07;90.39
75656;BME280;64252;51.094;13.714;2022-12-11T03:19:54;99852.25;;;-2.02;90.04
75656;BME280;64252;51.094;13.714;2022-12-11T03:24:59;99847.53;;;-2.01;89.80
75656;BME280;64252;51.094;13.714;2022-12-11T03:29:59;99854.16;;;-2.11;88.40
75656;BME280;64252;51.094;13.714;2022-12-11T03:32:30;99854.34;;;-2.07;88.57
75656;BME280;64252;51.094;13.714;2022-12-11T03:35:03;99848.47;;;-2.06;88.47
75656;BME280;64252;51.094;13.714;2022-12-11T03:37:31;99844.06;;;-2.07;88.38
75656;BME280;64252;51.094;13.714;2022-12-11T03:40:04;99853.53;;;-2.08;88.72
75656;BME280;64252;51.094;13.714;2022-12-11T03:42:33;99849.13;;;-2.09;88.68
75656;BME280;64252;51.094;13.714;2022-12-11T03:45:00;99847.63;;;-2.15;88.25
75656;BME280;64252;51.094;13.714;2022-12-11T03:47:27;99858.06;;;-2.12;89.09
75656;BME280;64252;51.094;13.714;2022-12-11T03:49:55;99858.22;;;-2.17;89.15
75656;BME280;64252;51.094;13.714;2022-12-11T03:52:22;99853.16;;;-2.15;89.26
75656;BME280;64252;51.094;13.714;2022-12-11T03:54:53;99851.03;;;-2.18;89.42
75656;BME280;64252;51.094;13.714;2022-12-11T03:57:21;99861.28;;;-2.18;88.98
75656;BME280;64252;51.094;13.714;2022-12-11T03:59:50;99854.44;;;-2.21;89.04
75656;BME280;64252;51.094;13.714;2022-12-11T04:02:15;99855.44;;;-2.17;86.78
75656;BME280;64252;51.094;13.714;2022-12-11T04:04:41;99855.63;;;-2.13;87.99
75656;BME280;64252;51.094;13.714;2022-12-11T04:07:08;99853.81;;;-2.18;87.17
75656;BME280;64252;51.094;13.714;2022-12-11T04:09:34;99841.75;;;-2.22;87.61
75656;BME280;64252;51.094;13.714;2022-12-11T04:11:59;99861.59;;;-2.20;87.67
75656;BME280;64252;51.094;13.714;2022-12-11T04:14:25;99854.81;;;-2.14;87.36
75656;BME280;64252;51.094;13.714;2022-12-11T04:17:09;99852.53;;;-2.12;87.55
75656;BME280;64252;51.094;13.714;2022-12-11T04:19:35;99850.91;;;-2.13;88.79
75656;BME280;64252;51.094;13.714;2022-12-11T04:22:19;99848.63;;;-2.11;87.49
75656;BME280;64252;51.094;13.714;2022-12-11T04:25:06;99856.63;;;-2.09;87.74
75656;BME280;64252;51.094;13.714;2022-12-11T04:27:32;99863.59;;;-2.12;88.67
75656;BME280;64252;51.094;13.714;2022-12-11T04:30:18;99865.72;;;-2.09;89.24
75656;BME280;64252;51.094;13.714;2022-12-11T04:32:45;99862.59;;;-2.16;87.98
75656;BME280;64252;51.094;13.714;2022-12-11T04:35:11;99857.88;;;-2.15;88.51
75656;BME280;64252;51.094;13.714;2022-12-11T04:37:37;99855.44;;;-2.17;88.49
75656;BME280;64252;51.094;13.714;2022-12-11T04:40:04;99857.06;;;-2.16;89.50
75656;BME280;64252;51.094;13.714;2022-12-11T04:42:31;99844.25;;;-2.12;89.10
75656;BME280;64252;51.094;13.714;2022-12-11T04:44:56;99842.63;;;-2.13;89.29
75656;BME280;64252;51.094;13.714;2022-12-11T04:47:22;99843.09;;;-2.11;89.27
75656;BME280;64252;51.094;13.714;2022-12-11T04:49:51;99837.56;;;-2.11;89.18
75656;BME280;64252;51.094;13.714;2022-12-11T04:52:17;99845.69;;;-2.14;88.37
75656;BME280;64252;51.094;13.714;2022-12-11T04:54:43;99843.75;;;-2.14;88.76
75656;BME280;64252;51.094;13.714;2022-12-11T04:57:09;99843.09;;;-2.11;89.57
75656;BME280;64252;51.094;13.714;2022-12-11T04:59:34;99840.66;;;-2.12;88.94
75656;BME280;64252;51.094;13.714;2022-12-11T05:02:01;99839.03;;;-2.13;89.32
75656;BME280;64252;51.094;13.714;2022-12-11T05:04:34;99831.69;;;-2.18;89.18
75656;BME280;64252;51.094;13.714;2022-12-11T05:07:00;99833.94;;;-2.20;88.28
75656;BME280;64252;51.094;13.714;2022-12-11T05:09:26;99826.16;;;-2.18;87.86
75656;BME280;64252;51.094;13.714;2022-12-11T05:11:52;99834.94;;;-2.16;88.24
75656;BME280;64252;51.094;13.714;2022-12-11T05:14:18;99825.19;;;-2.13;89.17
75656;BME280;64252;51.094;13.714;2022-12-11T05:16:44;99835.13;;;-2.12;89.84
75656;BME280;64252;51.094;13.714;2022-12-11T05:19:10;99826.50;;;-2.11;91.25
75656;BME280;64252;51.094;13.714;2022-12-11T05:21:35;99824.88;;;-2.12;90.90
75656;BME280;64252;51.094;13.714;2022-12-11T05:24:01;99817.06;;;-2.10;90.84
75656;BME280;64252;51.094;13.714;2022-12-11T05:26:27;99823.56;;;-2.14;89.13
75656;BME280;64252;51.094;13.714;2022-12-11T05:28:53;99822.13;;;-2.12;89.81
75656;BME280;64252;51.094;13.714;2022-12-11T05:31:21;99816.72;;;-2.17;89.99
75656;BME280;64252;51.094;13.714;2022-12-11T05:33:49;99820.94;;;-2.19;89.72
75656;BME280;64252;51.094;13.714;2022-12-11T05:36:22;99819.94;;;-2.24;89.42
75656;BME280;64252;51.094;13.714;2022-12-11T05:38:49;99827.88;;;-2.31;90.06
75656;BME280;64252;51.094;13.714;2022-12-11T05:41:18;99822.97;;;-2.34;90.77
75656;BME280;64252;51.094;13.714;2022-12-11T05:43:44;99821.97;;;-2.38;90.41
75656;BME280;64252;51.094;13.714;2022-12-11T05:46:18;99816.91;;;-2.44;89.80
75656;BME280;64252;51.094;13.714;2022-12-11T05:48:45;99812.00;;;-2.47;90.29
75656;BME280;64252;51.094;13.714;2022-12-11T05:51:12;99805.53;;;-2.43;89.70
75656;BME280;64252;51.094;13.714;2022-12-11T05:53:39;99812.97;;;-2.52;89.75
75656;BME280;64252;51.094;13.714;2022-12-11T05:56:18;99808.75;;;-2.49;89.26
75656;BME280;64252;51.094;13.714;2022-12-11T05:58:45;99813.66;;;-2.46;90.02
75656;BME280;64252;51.094;13.714;2022-12-11T06:01:23;99817.53;;;-2.47;90.30
75656;BME280;64252;51.094;13.714;2022-12-11T06:03:49;99809.56;;;-2.49;90.03
75656;BME280;64252;51.094;13.714;2022-12-11T06:06:14;99813.28;;;-2.53;90.67
75656;BME280;64252;51.094;13.714;2022-12-11T06:08:40;99810.19;;;-2.52;89.59
75656;BME280;64252;51.094;13.714;2022-12-11T06:11:06;99813.47;;;-2.50;89.73
75656;BME280;64252;51.094;13.714;2022-12-11T06:13:32;99810.03;;;-2.55;89.70
75656;BME280;64252;51.094;13.714;2022-12-11T06:16:03;99815.88;;;-2.57;90.06
75656;BME280;64252;51.094;13.714;2022-12-11T06:18:29;99821.09;;;-2.55;89.83
75656;BME280;64252;51.094;13.714;2022-12-11T06:20:54;99819.44;;;-2.56;89.72
75656;BME280;64252;51.094;13.714;2022-12-11T06:23:20;99818.19;;;-2.50;89.49
75656;BME280;64252;51.094;13.714;2022-12-11T06:25:46;99818.81;;;-2.53;89.10
75656;BME280;64252;51.094;13.714;2022-12-11T06:28:11;99820.94;;;-2.50;88.58
75656;BME280;64252;51.094;13.714;2022-12-11T06:30:37;99816.56;;;-2.51;88.80
75656;BME280;64252;51.094;13.714;2022-12-11T06:33:04;99822.84;;;-2.59;88.49
75656;BME280;64252;51.094;13.714;2022-12-11T06:35:29;99815.56;;;-2.55;89.92
75656;BME280;64252;51.094;13.714;2022-12-11T06:37:55;99822.34;;;-2.61;90.52
75656;BME280;64252;51.094;13.714;2022-12-11T06:40:20;99826.22;;;-2.62;91.07
75656;BME280;64252;51.094;13.714;2022-12-11T06:42:46;99830.31;;;-2.60;89.61
75656;BME280;64252;51.094;13.714;2022-12-11T06:45:12;99826.22;;;-2.62;90.18
75656;BME280;64252;51.094;13.714;2022-12-11T06:47:38;99826.22;;;-2.62;90.17
75656;BME280;64252;51.094;13.714;2022-12-11T06:50:03;99830.28;;;-2.69;89.59
75656;BME280;64252;51.094;13.714;2022-12-11T06:52:29;99831.41;;;-2.70;90.02
75656;BME280;64252;51.094;13.714;2022-12-11T06:54:58;99829.13;;;-2.68;89.26
75656;BME280;64252;51.094;13.714;2022-12-11T06:57:24;99834.84;;;-2.64;88.95
75656;BME280;64252;51.094;13.714;2022-12-11T06:59:49;99837.34;;;-2.76;88.90
75656;BME280;64252;51.094;13.714;2022-12-11T07:02:16;99837.16;;;-2.80;89.77
75656;BME280;64252;51.094;13.714;2022-12-11T07:04:43;99841.69;;;-2.84;89.57
75656;BME280;64252;51.094;13.714;2022-12-11T07:07:11;99844.19;;;-2.96;89.40
75656;BME280;64252;51.094;13.714;2022-12-11T07:09:38;99842.31;;;-2.87;89.31
75656;BME280;64252;51.094;13.714;2022-12-11T07:12:05;99848.34;;;-2.85;88.48
75656;BME280;64252;51.094;13.714;2022-12-11T07:14:31;99850.41;;;-2.90;88.43
75656;BME280;64252;51.094;13.714;2022-12-11T07:16:57;99845.19;;;-2.92;88.90
75656;BME280;64252;51.094;13.714;2022-12-11T07:19:23;99848.09;;;-2.97;88.97
75656;BME280;64252;51.094;13.714;2022-12-11T07:21:49;99857.88;;;-2.91;88.25
75656;BME280;64252;51.094;13.714;2022-12-11T07:24:15;99852.06;;;-2.89;88.13
75656;BME280;64252;51.094;13.714;2022-12-11T07:26:40;99850.94;;;-2.88;88.04
75656;BME280;64252;51.094;13.714;2022-12-11T07:29:06;99852.09;;;-2.81;87.67
75656;BME280;64252;51.094;13.714;2022-12-11T07:31:32;99844.34;;;-2.79;87.02
75656;BME280;64252;51.094;13.714;2022-12-11T07:34:00;99859.16;;;-2.75;86.83
75656;BME280;64252;51.094;13.714;2022-12-11T07:36:27;99859.91;;;-2.83;86.28
75656;BME280;64252;51.094;13.714;2022-12-11T07:38:53;99853.94;;;-2.76;86.66
75656;BME280;64252;51.094;13.714;2022-12-11T07:41:19;99868.25;;;-2.74;86.62
75656;BME280;64252;51.094;13.714;2022-12-11T07:43:52;99860.91;;;-2.79;87.05
75656;BME280;64252;51.094;13.714;2022-12-11T07:46:21;99864.41;;;-2.87;87.27
75656;BME280;64252;51.094;13.714;2022-12-11T07:48:47;99867.69;;;-2.85;87.17
75656;BME280;64252;51.094;13.714;2022-12-11T07:51:15;99867.44;;;-2.75;88.30
75656;BME280;64252;51.094;13.714;2022-12-11T07:53:47;99867.03;;;-2.82;87.95
75656;BME280;64252;51.094;13.714;2022-12-11T07:56:14;99860.16;;;-2.93;87.98
75656;BME280;64252;51.094;13.714;2022-12-11T07:58:41;99869.13;;;-2.87;88.25
75656;BME280;64252;51.094;13.714;2022-12-11T08:01:16;99878.09;;;-2.82;87.62
75656;BME280;64252;51.094;13.714;2022-12-11T08:03:42;99868.94;;;-2.91;87.24
75656;BME280;64252;51.094;13.714;2022-12-11T08:06:08;99876.59;;;-2.88;86.53
75656;BME280;64252;51.094;13.714;2022-12-11T08:08:34;99875.44;;;-2.87;86.28
75656;BME280;64252;51.094;13.714;2022-12-11T08:11:04;99869.56;;;-2.94;86.59
75656;BME280;64252;51.094;13.714;2022-12-11T08:13:30;99870.88;;;-2.91;85.93
75656;BME280;64252;51.094;13.714;2022-12-11T08:15:56;99875.09;;;-2.94;87.85
75656;BME280;64252;51.094;13.714;2022-12-11T08:18:21;99878.19;;;-3.09;87.24
75656;BME280;64252;51.094;13.714;2022-12-11T08:20:47;99870.44;;;-3.07;87.81
75656;BME280;64252;51.094;13.714;2022-12-11T08:23:12;99866.41;;;-3.01;87.37
75656;BME280;64252;51.094;13.714;2022-12-11T08:25:38;99868.84;;;-2.99;87.31
75656;BME280;64252;51.094;13.714;2022-12-11T08:28:04;99868.56;;;-2.98;86.54
75656;BME280;64252;51.094;13.714;2022-12-11T08:30:30;99866.91;;;-2.99;86.79
75656;BME280;64252;51.094;13.714;2022-12-11T08:32:56;99866.91;;;-2.99;86.05
75656;BME280;64252;51.094;13.714;2022-12-11T08:35:22;99873.25;;;-2.98;86.59
75656;BME280;64252;51.094;13.714;2022-12-11T08:37:48;99865.16;;;-2.95;85.65
75656;BME280;64252;51.094;13.714;2022-12-11T08:40:13;99870.75;;;-2.86;86.22
75656;BME280;64252;51.094;13.714;2022-12-11T08:42:39;99862.78;;;-2.88;85.19
75656;BME280;64252;51.094;13.714;2022-12-11T08:45:05;99858.75;;;-2.82;85.11
75656;BME280;64252;51.094;13.714;2022-12-11T08:47:31;99863.03;;;-2.76;83.90
75656;BME280;64252;51.094;13.714;2022-12-11T08:49:56;99863.56;;;-2.74;85.10
75656;BME280;64252;51.094;13.714;2022-12-11T08:52:22;99847.97;;;-2.70;84.83
75656;BME280;64252;51.094;13.714;2022-12-11T08:54:47;99860.03;;;-2.66;84.53
75656;BME280;64252;51.094;13.714;2022-12-11T08:57:13;99857.50;;;-2.53;83.76
75656;BME280;64252;51.094;13.714;2022-12-11T08:59:39;99854.25;;;-2.55;83.71
75656;BME280;64252;51.094;13.714;2022-12-11T09:02:05;99858.50;;;-2.49;82.87
75656;BME280;64252;51.094;13.714;2022-12-11T09:04:31;99852.69;;;-2.39;83.76
75656;BME280;64252;51.094;13.714;2022-12-11T09:06:57;99864.22;;;-2.46;83.21
75656;BME280;64252;51.094;13.714;2022-12-11T09:09:22;99853.91;;;-2.32;82.74
75656;BME280;64252;51.094;13.714;2022-12-11T09:11:48;99871.44;;;-2.36;83.40
75656;BME280;64252;51.094;13.714;2022-12-11T09:14:14;99866.41;;;-2.34;81.71
75656;BME280;64252;51.094;13.714;2022-12-11T09:16:40;99868.53;;;-2.31;81.60
75656;BME280;64252;51.094;13.714;2022-12-11T09:19:07;99871.19;;;-2.48;83.23
75656;BME280;64252;51.094;13.714;2022-12-11T09:21:33;99868.69;;;-2.58;83.43
75656;BME280;64252;51.094;13.714;2022-12-11T09:24:00;99865.03;;;-2.45;82.82
75656;BME280;64252;51.094;13.714;2022-12-11T09:26:27;99869.72;;;-2.54;83.07
75656;BME280;64252;51.094;13.714;2022-12-11T09:28:53;99864.03;;;-2.49;83.42
75656;BME280;64252;51.094;13.714;2022-12-11T09:33:48;99850.72;;;-2.47;82.30
75656;BME280;64252;51.094;13.714;2022-12-11T09:36:13;99857.50;;;-2.31;81.88
75656;BME280;64252;51.094;13.714;2022-12-11T09:38:39;99850.81;;;-2.30;80.83
75656;BME280;64252;51.094;13.714;2022-12-11T09:43:51;99856.19;;;-2.25;81.30
75656;BME280;64252;51.094;13.714;2022-12-11T09:46:23;99848.97;;;-2.12;80.91
75656;BME280;64252;51.094;13.714;2022-12-11T09:48:50;99855.78;;;-2.10;81.45
75656;BME280;64252;51.094;13.714;2022-12-11T09:51:35;99846.44;;;-1.92;79.48
75656;BME280;64252;51.094;13.714;2022-12-11T09:54:11;99848.84;;;-1.99;80.26
75656;BME280;64252;51.094;13.714;2022-12-11T09:56:43;99855.16;;;-2.07;80.93
75656;BME280;64252;51.094;13.714;2022-12-11T10:04:32;99849.59;;;-1.76;78.91
75656;BME280;64252;51.094;13.714;2022-12-11T10:10:02;99844.69;;;-1.79;79.54
75656;BME280;64252;51.094;13.714;2022-12-11T10:12:57;99828.28;;;-1.67;79.45
75656;BME280;64252;51.094;13.714;2022-12-11T10:15:51;99831.22;;;-1.63;78.94
75656;BME280;64252;51.094;13.714;2022-12-11T10:18:21;99827.63;;;-1.64;78.42
75656;BME280;64252;51.094;13.714;2022-12-11T10:20:49;99827.69;;;-1.47;79.64
75656;BME280;64252;51.094;13.714;2022-12-11T10:23:42;99824.78;;;-1.33;78.68
75656;BME280;64252;51.094;13.714;2022-12-11T10:26:16;99819.38;;;-1.38;78.30
75656;BME280;64252;51.094;13.714;2022-12-11T10:28:42;99812.72;;;-1.03;77.31
75656;BME280;64252;51.094;13.714;2022-12-11T10:31:19;99807.50;;;-0.96;75.88
75656;BME280;64252;51.094;13.714;2022-12-11T10:34:04;99800.63;;;-0.72;76.33
75656;BME280;64252;51.094;13.714;2022-12-11T10:36:36;99797.69;;;-0.84;73.99
75656;BME280;64252;51.094;13.714;2022-12-11T10:39:09;99810.44;;;-1.01;75.04
75656;BME280;64252;51.094;13.714;2022-12-11T10:41:38;99808.44;;;-0.74;74.15
75656;BME280;64252;51.094;13.714;2022-12-11T10:46:39;99816.94;;;-0.79;74.28
75656;BME280;64252;51.094;13.714;2022-12-11T10:49:05;99807.81;;;-0.97;75.71
75656;BME280;64252;51.094;13.714;2022-12-11T10:54:02;99794.78;;;-0.97;75.98
75656;BME280;64252;51.094;13.714;2022-12-11T10:56:32;99804.06;;;-1.27;76.14
75656;BME280;64252;51.094;13.714;2022-12-11T10:58:59;99801.16;;;-1.05;76.82
75656;BME280;64252;51.094;13.714;2022-12-11T11:01:30;99799.03;;;-1.16;77.16
75656;BME280;64252;51.094;13.714;2022-12-11T11:04:32;99791.88;;;-1.09;76.46
75656;BME280;64252;51.094;13.714;2022-12-11T11:07:11;99793.78;;;-0.83;76.66
75656;BME280;64252;51.094;13.714;2022-12-11T11:09:38;99789.22;;;-0.79;75.18
75656;BME280;64252;51.094;13.714;2022-12-11T11:12:24;99778.66;;;-1.03;77.25
75656;BME280;64252;51.094;13.714;2022-12-11T11:15:14;99783.38;;;-0.86;75.82
75656;BME280;64252;51.094;13.714;2022-12-11T11:17:54;99781.88;;;-0.84;76.19
75656;BME280;64252;51.094;13.714;2022-12-11T11:20:26;99781.91;;;-0.75;76.18
75656;BME280;64252;51.094;13.714;2022-12-11T11:22:55;99768.81;;;-0.75;75.99
75656;BME280;64252;51.094;13.714;2022-12-11T11:25:23;99780.63;;;-1.04;76.27
75656;BME280;64252;51.094;13.714;2022-12-11T11:28:16;99767.09;;;-0.97;76.55
75656;BME280;64252;51.094;13.714;2022-12-11T11:30:38;99776.22;;;-1.05;76.30
75656;BME280;64252;51.094;13.714;2022-12-11T11:33:11;99767.25;;;-1.02;76.33
75656;BME280;64252;51.094;13.714;2022-12-11T11:35:38;99769.38;;;-1.16;77.38
75656;BME280;64252;51.094;13.714;2022-12-11T11:40:47;99764.81;;;-1.12;76.77
75656;BME280;64252;51.094;13.714;2022-12-11T11:48:52;99748.38;;;-1.51;78.07
75656;BME280;64252;51.094;13.714;2022-12-11T11:51:32;99758.63;;;-1.52;77.99
75656;BME280;64252;51.094;13.714;2022-12-11T11:54:00;99756.63;;;-1.68;79.30
75656;BME280;64252;51.094;13.714;2022-12-11T11:56:31;99748.84;;;-1.58;78.99
75656;BME280;64252;51.094;13.714;2022-12-11T12:02:13;99737.78;;;-1.49;79.01
75656;BME280;64252;51.094;13.714;2022-12-11T12:04:40;99750.47;;;-1.65;79.69
75656;BME280;64252;51.094;13.714;2022-12-11T12:07:27;99740.06;;;-1.51;79.71
75656;BME280;64252;51.094;13.714;2022-12-11T12:15:13;99737.09;;;-1.63;79.09
75656;BME280;64252;51.094;13.714;2022-12-11T12:17:52;99746.41;;;-1.51;79.26
75656;BME280;64252;51.094;13.714;2022-12-11T12:23:34;99738.44;;;-1.09;75.06
75656;BME280;64252;51.094;13.714;2022-12-11T12:26:36;99735.66;;;-1.18;75.66
75656;BME280;64252;51.094;13.714;2022-12-11T12:29:12;99733.19;;;-1.11;75.58
75656;BME280;64252;51.094;13.714;2022-12-11T12:32:02;99737.13;;;-1.46;75.47
75656;BME280;64252;51.094;13.714;2022-12-11T12:37:57;99738.59;;;-1.66;76.94
75656;BME280;64252;51.094;13.714;2022-12-11T12:40:35;99733.19;;;-1.80;77.93
75656;BME280;64252;51.094;13.714;2022-12-11T12:46:18;99735.81;;;-1.74;76.79
75656;BME280;64252;51.094;13.714;2022-12-11T12:48:45;99726.19;;;-1.68;75.90
75656;BME280;64252;51.094;13.714;2022-12-11T12:51:15;99720.50;;;-1.55;76.50
75656;BME280;64252;51.094;13.714;2022-12-11T12:53:51;99722.44;;;-1.55;77.00
75656;BME280;64252;51.094;13.714;2022-12-11T12:56:18;99716.75;;;-1.67;77.64
75656;BME280;64252;51.094;13.714;2022-12-11T12:58:45;99713.00;;;-1.71;78.75
75656;BME280;64252;51.094;13.714;2022-12-11T13:01:18;99704.88;;;-1.68;78.64
75656;BME280;64252;51.094;13.714;2022-12-11T13:04:05;99702.09;;;-1.68;79.43
75656;BME280;64252;51.094;13.714;2022-12-11T13:06:35;99704.72;;;-1.63;79.47
75656;BME280;64252;51.094;13.714;2022-12-11T13:09:15;99704.56;;;-1.66;79.00
75656;BME280;64252;51.094;13.714;2022-12-11T13:11:43;99708.16;;;-1.74;79.16
75656;BME280;64252;51.094;13.714;2022-12-11T13:16:42;99704.56;;;-1.66;78.11
75656;BME280;64252;51.094;13.714;2022-12-11T13:27:45;99699.81;;;-1.83;79.56
75656;BME280;64252;51.094;13.714;2022-12-11T13:32:40;99703.03;;;-2.07;80.22
75656;BME280;64252;51.094;13.714;2022-12-11T13:35:14;99708.75;;;-2.03;80.47
75656;BME280;64252;51.094;13.714;2022-12-11T13:37:42;99703.81;;;-2.15;80.75
75656;BME280;64252;51.094;13.714;2022-12-11T13:40:32;99720.56;;;-2.20;80.87
75656;BME280;64252;51.094;13.714;2022-12-11T13:43:01;99706.88;;;-2.25;81.15
75656;BME280;64252;51.094;13.714;2022-12-11T13:48:34;99718.22;;;-2.44;81.35
75656;BME280;64252;51.094;13.714;2022-12-11T13:50:58;99721.16;;;-2.40;81.63
75656;BME280;64252;51.094;13.714;2022-12-11T13:53:24;99729.09;;;-2.47;82.19
75656;BME280;64252;51.094;13.714;2022-12-11T13:56:04;99727.63;;;-2.45;83.52
75656;BME280;64252;51.094;13.714;2022-12-11T13:58:36;99726.84;;;-2.45;84.57
75656;BME280;64252;51.094;13.714;2022-12-11T14:01:07;99729.59;;;-2.45;83.24
75656;BME280;64252;51.094;13.714;2022-12-11T14:04:07;99725.81;;;-2.49;84.02
75656;BME280;64252;51.094;13.714;2022-12-11T14:06:35;99719.81;;;-2.51;84.90
75656;BME280;64252;51.094;13.714;2022-12-11T14:09:04;99717.38;;;-2.53;85.01
75656;BME280;64252;51.094;13.714;2022-12-11T14:11:36;99714.59;;;-2.53;84.71